Reno (UNR), Valley Road, Nevada Weather observations

Data are for observation ending at time listed.
 Day   Time    Ave.   Ave.  Ave.  Vector   Max.    Total    Solar   Rl      Baro.   Ave.  
  of    of     Air    Rel.  Wind   Wind    Wind   Precip.   Rad.    in      Pres.   Soil  
Year   Day     Temp.  Hum.  Speed  Dir.    Gust                                     Temp. 
2026   (PST)    F      %     mph   deg.    mph      in.     W/m2    W/m2     mb.     F   
-----------------------------------------------------------------------------------------
 124    5:20   51.0    67    2.6   132      3.9     0.00      12     344    858.1   59.8
 124    5:30   51.0    67    3.0   204      5.9     0.00      19     345    858.1   59.8
 124    5:40   51.3    66    3.0   188      5.1     0.00      20     347    858.1   59.8
 124    5:50   51.5    66    3.8   209      6.0     0.00      39     348    858.2   59.7
 124    6:00   51.6    65    3.4   247      8.1     0.00      67     350    858.1   59.7
 124    6:10   52.1    63    4.7   248      9.4     0.00      85     347    858.1   59.6
 124    6:20   52.6    62    2.5   251      5.2     0.00     101     342    858.1   59.6
 124    6:30   52.9    62    3.4   359      6.5     0.00      98     351    858.1   59.5
 124    6:40   52.6    64    4.4    40      6.3     0.00      88     355    858.1   59.5
 124    6:50   52.8    64    3.5    54      6.0     0.00      97     355    858.4   59.5
 124    7:00   53.2    63    2.8   104      5.2     0.00     117     357    858.3   59.5
 124    7:10   53.7    62    3.0   111      5.9     0.00     111     359    858.5   59.5
 124    7:20   53.7    62    2.4    50      4.8     0.00      85     364    858.5   59.5
 124    7:30   53.6    62    1.6   256      3.4     0.00      50     366    858.5   59.5
 124    7:40   53.6    64    2.9   118      7.5     0.00      30     364    858.7   59.5
 124    7:50   53.3    65    3.8   146      6.7     0.00      43     366    858.8   59.5
 124    8:00   52.7    73    4.5   156      7.8     0.00      39     374    859.0   59.5
 124    8:10   51.7    78    2.8   249      4.7     0.01     185     369    859.0   59.5
 124    8:20   53.3    77    5.0   279      9.8     0.01     685     385    858.8   59.5
 124    8:30   53.7    76    5.9   279      9.6     0.00     591     387    858.6   59.5
 124    8:40   54.0    74    6.4   269     11.4     0.00     274     382    858.7   59.5
 124    8:50   53.4    74    6.0   256     10.2     0.00     133     378    858.6   59.5
 124    9:00   53.4    74    6.2   240     10.1     0.00     194     377    858.8   59.6
 124    9:10   53.6    75    5.6   267     11.2     0.00     171     376    858.9   59.6
 124    9:20   53.4    74    5.2   291     12.0     0.00     192     373    859.0   59.7
 124    9:30   53.5    73    5.7   272      9.6     0.00     269     372    858.8   59.7
 124    9:40   54.9    72    5.6   262     11.3     0.00     495     363    858.7   59.8
 124    9:50   55.9    69    7.6   262     13.3     0.00     435     356    858.7   59.8
 124   10:00   56.2    66    6.8   273     11.2     0.00     403     352    858.6   59.8
 124   10:10   57.3    64    6.9   284     12.1     0.00     658     359    858.6   59.8
 124   10:20   58.3    61    8.8   284     14.6     0.00     777     358    858.5   59.9
 124   10:30   59.3    59    8.7   269     15.5     0.00     988     355    858.5   59.9
 124   10:40   60.6    57    7.5   255     12.1     0.00     542     359    858.3   60.0
 124   10:50   60.1    56    7.8   251     13.3     0.00     627     361    858.3   60.1
 124   11:00   61.9    52    8.6   238     14.4     0.00     731     374    858.2   60.2
 124   11:10   61.3    51    7.4   232     13.7     0.00     378     383    858.2   60.4
 124   11:20   60.4    58    7.5   193     13.1     0.00     337     381    858.2   60.6
 124   11:30   60.4    58    7.3   188     13.0     0.00     380     381    858.1   60.8
 124   11:40   58.6    62   10.1   174     18.1     0.00     368     381    858.1   61.0
 124   11:50   57.9    63    8.0   184     13.6     0.00     198     378    858.0   61.2
 124   12:00   56.9    67    7.7   182     13.3     0.00      51     385    858.0   61.4
 124   12:10   55.0    75    7.6   166     12.4     0.00      42     381    858.3   61.6
 124   12:20   54.5    79    6.8   173     12.0     0.00     232     380    858.5   61.7
 124   12:30   56.6    78    8.6   171     14.6     0.01    1131     398    858.0   61.8
 124   12:40   59.1    72    7.6   190     15.7     0.00    1034     404    858.0   61.9
 124   12:50   60.2    64    7.3   202     14.0     0.00    1061     368    857.8   61.9
 124   13:00   61.6    55    7.2   194     12.6     0.00    1019     343    857.8   62.0
 124   13:10   63.0    53    7.2   166     13.2     0.00     933     352    857.7   62.0
 124   13:20   62.0    56    6.5   233     12.9     0.00     841     358    857.8   62.1
 124   13:30   61.0    56   10.1   260     19.3     0.00     962     352    857.6   62.2
 124   13:40   60.4    56   10.8   254     17.6     0.00     662     359    857.4   62.3
 124   13:50   61.9    53   10.5   240     18.9     0.00     890     359    857.1   62.5
 124   14:00   60.7    54    9.9   265     19.6     0.00     697     349    857.0   62.6
 124   14:10   61.8    53   10.0   253     18.4     0.00     727     364    857.2   62.7
 124   14:20   60.4    55    9.5   260     19.7     0.00     485     365    857.0   62.9
 124   14:30   60.0    55   10.6   267     21.8     0.00     545     366    856.9   63.0
 124   14:40   59.1    56   11.4   275     19.9     0.00     310     384    856.9   63.2
 124   14:50   58.3    57   11.0   268     20.9     0.00     159     382    857.0   63.3
 124   15:00   57.9    58   13.6   255     24.8     0.00     298     369    856.7   63.4
 124   15:10   57.6    58   12.6   259     24.6     0.00     230     360    856.6   63.6
 124   15:20   58.3    58   11.8   258     20.5     0.00     731     346    856.5   63.7
 124   15:30   60.5    54   11.8   256     23.7     0.00     748     377    856.5   63.8
 124   15:40   59.8    52   11.9   246     22.0     0.00     361     384    856.6   63.8
 124   15:50   58.2    54   12.0   260     26.3     0.00     173     381    856.6   63.9
 124   16:00   57.6    56   11.4   266     26.3     0.00     118     381    856.6   64.0
 124   16:10   56.7    58   11.8   255     21.0     0.00      46     377    856.6   64.0
 124   16:20   55.9    60    9.1   252     17.7     0.00      12     374    856.7   64.1
 124   16:30   55.0    66    7.0   264     20.7     0.00       4     375    857.2   64.1
 124   16:40   53.7    74    7.3   184     13.0     0.01       2     375    857.8   64.1
 124   16:50   51.4    86    7.2   149     14.7     0.05       4     373    858.0   64.1
 124   17:00   50.1    90    7.2   168     13.7     0.00       3     371    858.1   64.1
 124   17:10   49.6    92    5.0   178     10.7     0.02       3     370    858.3   64.1
 124   17:20   49.4    93    3.3   128      7.0     0.02       2     369    858.8   64.0
 124   17:30   49.0    95    4.5   222      7.5     0.05       2     370    858.6   63.9
 124   17:40   49.0    95    6.7   265     14.8     0.01       3     370    858.0   63.8
 124   17:50   48.4    90   11.5   275     18.9     0.00       6     364    857.5   63.6
 124   18:00   48.0    87   10.8   274     25.1     0.00      13     355    857.4   63.5
 124   18:10   47.4    86   12.4   273     24.8     0.00      20     346    857.4   63.4
 124   18:20   47.0    86   11.5   273     19.2     0.00      23     338    857.4   63.2
 124   18:30   47.5    84   10.7   274     24.3     0.00       8     353    857.7   63.0
 124   18:40   47.7    81    9.4   281     16.2     0.00       1     356    858.2   62.9
 124   18:50   47.0    83   10.7   267     18.3     0.01       0     359    858.0   62.7
 124   19:00   46.0    85    9.3   281     19.4     0.01       0     357    857.7   62.5
 124   19:10   45.9    86    9.5   251     18.3     0.01       0     357    857.8   62.4
 124   19:20   45.6    88    8.7   246     18.3     0.00       0     356    857.4   62.2
 124   19:30   45.8    87    8.8   274     18.1     0.00       0     350    857.6   62.0
 124   19:40   46.5    83    9.3   274     17.1     0.00       0     352    858.0   61.8
 124   19:50   47.3    82    8.9   292     18.3     0.00       0     353    858.1   61.7
 124   20:00   48.2    84    6.3   260     10.7     0.00       0     356    858.3   61.5
 124   20:10   47.7    84    6.4   264     12.8     0.00       0     356    858.0   61.3
 124   20:20   47.2    83    5.4   277      9.7     0.00       0     354    858.3   61.2
 124   20:30   46.9    84    5.4   273     12.6     0.00       0     354    858.3   61.0
 124   20:40   47.2    84    7.1   258     12.9     0.00       0     355    858.3   60.8
 124   20:50   47.1    84    6.2   294     10.8     0.00       0     353    858.6   60.7
 124   21:00   47.2    83    6.4   288     12.8     0.00       0     346    858.6   60.5
 124   21:10   47.8    80    8.1   282     15.2     0.00       0     351    858.7   60.4
 124   21:20   47.6    80    5.3   282     10.8     0.00       0     354    858.5   60.3
 124   21:30   47.4    80    6.4   272     12.6     0.00       0     354    858.3   60.2
 124   21:40   47.6    79    5.8   271     10.9     0.00       0     344    858.2   60.0
 124   21:50   47.3    80    5.5   253     10.1     0.00       0     339    858.2   59.9
 124   22:00   47.3    79    4.3   268      7.3     0.00       0     341    858.0   59.8
 124   22:10   47.4    79    3.4   306      6.9     0.00       0     347    858.1   59.6
 124   22:20   47.4    80    1.0    14      2.6     0.00       0     346    858.0   59.5
 124   22:30   47.2    81    2.1   126      5.2     0.00       0     346    858.1   59.4
 124   22:40   47.1    83    2.4   135      4.9     0.00       0     343    858.3   59.3
 124   22:50   46.9    85    1.7   344      3.5     0.00       0     338    858.6   59.2
 124   23:00   46.7    85    1.3   255      2.4     0.00       0     334    858.7   59.1
 124   23:10   46.3    87    1.4   353      3.0     0.00       0     331    858.8   58.9
 124   23:20   45.9    89    1.1   298      3.3     0.00       0     332    859.0   58.8
 124   23:30   45.8    90    2.6   274      3.6     0.00       0     345    859.0   58.7
 124   23:40   46.3    91    3.8   244      9.1     0.00       0     351    858.7   58.6
 124   23:50   46.3    88    4.3   246      8.6     0.00       0     350    858.8   58.5
 125    0:00   46.6    84    5.0   283      8.5     0.00       0     354    858.8   58.4
 125    0:10   46.5    86    4.4   282      9.2     0.00       0     354    858.8   58.3
 125    0:20   46.8    82    3.7   253      6.7     0.00       0     354    858.7   58.2
 125    0:30   46.8    82    4.3   250      7.6     0.00       0     345    858.6   58.1
 125    0:40   46.7    83    2.4   222      4.6     0.00       0     353    858.5   58.0
 125    0:50   46.7    84    1.3   211      2.9     0.00       0     348    858.5   58.0
 125    1:00   46.8    83    1.6   184      3.6     0.00       0     351    858.4   57.9
 125    1:10   47.0    83    2.1   277      3.6     0.00       0     337    858.3   57.8
 125    1:20   47.2    81    2.9   269      5.8     0.00       0     338    858.3   57.7
 125    1:30   47.1    81    1.1   276      3.4     0.00       0     347    858.2   57.7
 125    1:40   47.1    82    3.0   240      6.1     0.00       0     355    858.3   57.6
 125    1:50   47.2    82    4.0   247      6.7     0.00       0     357    858.2   57.5
 125    2:00   47.3    81    3.1   252      6.0     0.00       0     358    858.3   57.4
 125    2:10   47.5    81    3.6   224      6.8     0.00       0     358    858.1   57.4
 125    2:20   47.5    81    3.0   210      7.1     0.00       0     358    858.2   57.3
 125    2:30   47.5    81    2.5   219      3.9     0.00       0     358    858.1   57.2
 125    2:40   47.6    83    2.3   231      3.9     0.00       0     358    858.1   57.2
 125    2:50   47.6    81    2.2   264      4.3     0.00       0     359    858.0   57.1
 125    3:00   47.6    82    3.2   244      4.7     0.00       0     359    858.0   57.1
 125    3:10   47.5    83    2.3   256      4.3     0.00       0     359    857.9   57.0
 125    3:20   47.6    82    2.3   290      5.6     0.00       0     359    857.9   57.0
 125    3:30   47.7    82    2.6   288      5.0     0.00       0     360    857.9   56.9
 125    3:40   47.7    81    2.7   295      5.0     0.00       0     360    857.8   56.9
 125    3:50   47.7    82    2.4   288      3.6     0.00       0     360    858.0   56.9
 125    4:00   47.7    83    2.2   296      3.0     0.00       0     359    857.8   56.8
 125    4:10   47.8    83    0.9   272      2.2     0.00       0     359    858.0   56.8
 125    4:20   47.8    84    1.6    61      3.3     0.00       0     359    857.9   56.7
 125    4:30   47.9    84    1.9    70      3.3     0.00       0     360    858.0   56.7
 125    4:40   47.9    83    1.8    16      4.2     0.00       0     360    857.9   56.7
 125    4:50   48.0    82    3.5   309      6.9     0.00       0     360    858.0   56.6
 125    5:00   48.1    82    2.2   311      4.9     0.00       1     361    858.0   56.6
 125    5:10   47.9    82    3.3   232      6.5     0.00       3     360    858.0   56.6

Return to Reno (UNR), Nevada graphs page.


Western Regional Climate Center,wrcc@dri.edu